sensor_id;sensor_type;location;lat;lon;timestamp;P1;durP1;ratioP1;P2;durP2;ratioP2
71238;SDS011;61342;51.442;7.370;2022-12-07T00:00:55;37.67;;;30.50;;
71238;SDS011;61342;51.442;7.370;2022-12-07T00:02:04;45.30;;;30.80;;
71238;SDS011;61342;51.442;7.370;2022-12-07T00:03:04;39.00;;;29.70;;
71238;SDS011;61342;51.442;7.370;2022-12-07T00:04:05;40.47;;;29.63;;
71238;SDS011;61342;51.442;7.370;2022-12-07T00:05:15;39.23;;;29.47;;
71238;SDS011;61342;51.442;7.370;2022-12-07T00:06:18;39.27;;;29.20;;
71238;SDS011;61342;51.442;7.370;2022-12-07T00:07:19;42.57;;;29.90;;
71238;SDS011;61342;51.442;7.370;2022-12-07T00:08:20;43.17;;;29.60;;
71238;SDS011;61342;51.442;7.370;2022-12-07T00:09:20;37.37;;;29.70;;
71238;SDS011;61342;51.442;7.370;2022-12-07T00:10:21;41.97;;;29.93;;
71238;SDS011;61342;51.442;7.370;2022-12-07T00:11:22;40.30;;;29.90;;
71238;SDS011;61342;51.442;7.370;2022-12-07T00:12:23;40.60;;;29.80;;
71238;SDS011;61342;51.442;7.370;2022-12-07T00:13:23;41.67;;;30.50;;
71238;SDS011;61342;51.442;7.370;2022-12-07T00:14:24;43.50;;;30.90;;
71238;SDS011;61342;51.442;7.370;2022-12-07T00:15:24;39.80;;;29.43;;
71238;SDS011;61342;51.442;7.370;2022-12-07T00:16:25;40.60;;;28.87;;
71238;SDS011;61342;51.442;7.370;2022-12-07T00:17:28;42.17;;;29.67;;
71238;SDS011;61342;51.442;7.370;2022-12-07T00:18:28;37.07;;;29.93;;
71238;SDS011;61342;51.442;7.370;2022-12-07T00:19:28;34.70;;;27.97;;
71238;SDS011;61342;51.442;7.370;2022-12-07T00:20:29;35.70;;;27.37;;
71238;SDS011;61342;51.442;7.370;2022-12-07T00:21:31;40.60;;;29.23;;
71238;SDS011;61342;51.442;7.370;2022-12-07T00:22:32;44.50;;;30.07;;
71238;SDS011;61342;51.442;7.370;2022-12-07T00:23:33;37.23;;;28.87;;
71238;SDS011;61342;51.442;7.370;2022-12-07T00:24:34;39.23;;;28.67;;
71238;SDS011;61342;51.442;7.370;2022-12-07T00:25:34;37.47;;;29.27;;
71238;SDS011;61342;51.442;7.370;2022-12-07T00:26:35;36.10;;;28.67;;
71238;SDS011;61342;51.442;7.370;2022-12-07T00:27:37;37.63;;;28.83;;
71238;SDS011;61342;51.442;7.370;2022-12-07T00:28:38;42.17;;;29.47;;
71238;SDS011;61342;51.442;7.370;2022-12-07T00:29:38;41.60;;;28.90;;
71238;SDS011;61342;51.442;7.370;2022-12-07T00:30:39;41.47;;;28.93;;
71238;SDS011;61342;51.442;7.370;2022-12-07T00:31:39;35.83;;;28.80;;
71238;SDS011;61342;51.442;7.370;2022-12-07T00:32:40;39.07;;;27.83;;
71238;SDS011;61342;51.442;7.370;2022-12-07T00:33:46;37.93;;;28.77;;
71238;SDS011;61342;51.442;7.370;2022-12-07T00:34:53;39.03;;;29.47;;
71238;SDS011;61342;51.442;7.370;2022-12-07T00:35:57;37.57;;;28.57;;
71238;SDS011;61342;51.442;7.370;2022-12-07T00:36:58;36.20;;;26.90;;
71238;SDS011;61342;51.442;7.370;2022-12-07T00:37:59;35.50;;;28.27;;
71238;SDS011;61342;51.442;7.370;2022-12-07T00:39:02;35.30;;;27.03;;
71238;SDS011;61342;51.442;7.370;2022-12-07T00:40:12;35.37;;;27.47;;
71238;SDS011;61342;51.442;7.370;2022-12-07T00:41:14;41.77;;;29.27;;
71238;SDS011;61342;51.442;7.370;2022-12-07T00:42:18;36.67;;;27.70;;
71238;SDS011;61342;51.442;7.370;2022-12-07T00:43:18;35.63;;;27.47;;
71238;SDS011;61342;51.442;7.370;2022-12-07T00:44:19;39.07;;;27.53;;
71238;SDS011;61342;51.442;7.370;2022-12-07T00:45:22;37.90;;;28.83;;
71238;SDS011;61342;51.442;7.370;2022-12-07T00:46:22;36.40;;;27.93;;
71238;SDS011;61342;51.442;7.370;2022-12-07T00:47:23;34.30;;;28.10;;
71238;SDS011;61342;51.442;7.370;2022-12-07T00:48:24;37.50;;;27.93;;
71238;SDS011;61342;51.442;7.370;2022-12-07T00:49:25;38.83;;;28.33;;
71238;SDS011;61342;51.442;7.370;2022-12-07T00:50:25;39.90;;;29.40;;
71238;SDS011;61342;51.442;7.370;2022-12-07T00:51:26;34.97;;;27.27;;
71238;SDS011;61342;51.442;7.370;2022-12-07T00:52:26;37.10;;;28.23;;
71238;SDS011;61342;51.442;7.370;2022-12-07T00:53:26;43.37;;;29.17;;
71238;SDS011;61342;51.442;7.370;2022-12-07T00:54:27;36.53;;;28.23;;
71238;SDS011;61342;51.442;7.370;2022-12-07T00:55:28;38.53;;;28.50;;
71238;SDS011;61342;51.442;7.370;2022-12-07T00:56:28;37.40;;;28.13;;
71238;SDS011;61342;51.442;7.370;2022-12-07T00:57:30;35.93;;;27.93;;
71238;SDS011;61342;51.442;7.370;2022-12-07T00:58:30;36.33;;;28.23;;
71238;SDS011;61342;51.442;7.370;2022-12-07T00:59:31;37.57;;;28.57;;
71238;SDS011;61342;51.442;7.370;2022-12-07T01:00:32;35.20;;;27.90;;
71238;SDS011;61342;51.442;7.370;2022-12-07T01:01:35;33.93;;;27.90;;
71238;SDS011;61342;51.442;7.370;2022-12-07T01:02:36;38.17;;;28.87;;
71238;SDS011;61342;51.442;7.370;2022-12-07T01:03:37;35.47;;;28.00;;
71238;SDS011;61342;51.442;7.370;2022-12-07T01:04:37;37.87;;;28.23;;
71238;SDS011;61342;51.442;7.370;2022-12-07T01:05:38;36.50;;;28.00;;
71238;SDS011;61342;51.442;7.370;2022-12-07T01:06:39;37.90;;;29.50;;
71238;SDS011;61342;51.442;7.370;2022-12-07T01:07:39;42.37;;;29.50;;
71238;SDS011;61342;51.442;7.370;2022-12-07T01:08:39;35.77;;;27.97;;
71238;SDS011;61342;51.442;7.370;2022-12-07T01:09:40;36.37;;;28.90;;
71238;SDS011;61342;51.442;7.370;2022-12-07T01:10:40;35.27;;;27.37;;
71238;SDS011;61342;51.442;7.370;2022-12-07T01:11:40;37.03;;;28.73;;
71238;SDS011;61342;51.442;7.370;2022-12-07T01:12:41;37.03;;;29.00;;
71238;SDS011;61342;51.442;7.370;2022-12-07T01:13:42;37.20;;;29.20;;
71238;SDS011;61342;51.442;7.370;2022-12-07T01:14:43;34.53;;;27.90;;
71238;SDS011;61342;51.442;7.370;2022-12-07T01:15:43;38.87;;;29.37;;
71238;SDS011;61342;51.442;7.370;2022-12-07T01:16:44;35.70;;;28.23;;
71238;SDS011;61342;51.442;7.370;2022-12-07T01:17:45;40.43;;;29.70;;
71238;SDS011;61342;51.442;7.370;2022-12-07T01:18:46;35.37;;;28.23;;
71238;SDS011;61342;51.442;7.370;2022-12-07T01:19:48;38.37;;;27.63;;
71238;SDS011;61342;51.442;7.370;2022-12-07T01:22:10;44.50;;;29.27;;
71238;SDS011;61342;51.442;7.370;2022-12-07T01:23:10;37.10;;;28.10;;
71238;SDS011;61342;51.442;7.370;2022-12-07T01:24:11;41.80;;;29.13;;
71238;SDS011;61342;51.442;7.370;2022-12-07T01:25:11;39.90;;;28.53;;
71238;SDS011;61342;51.442;7.370;2022-12-07T01:26:14;39.23;;;30.13;;
71238;SDS011;61342;51.442;7.370;2022-12-07T01:27:16;43.07;;;28.90;;
71238;SDS011;61342;51.442;7.370;2022-12-07T01:28:16;40.20;;;29.10;;
71238;SDS011;61342;51.442;7.370;2022-12-07T01:29:17;39.07;;;29.43;;
71238;SDS011;61342;51.442;7.370;2022-12-07T01:30:17;43.20;;;30.00;;
71238;SDS011;61342;51.442;7.370;2022-12-07T01:31:18;35.50;;;28.70;;
71238;SDS011;61342;51.442;7.370;2022-12-07T01:32:21;43.13;;;29.77;;
71238;SDS011;61342;51.442;7.370;2022-12-07T01:33:21;40.90;;;29.47;;
71238;SDS011;61342;51.442;7.370;2022-12-07T01:34:22;38.87;;;29.37;;
71238;SDS011;61342;51.442;7.370;2022-12-07T01:35:22;41.47;;;30.00;;
71238;SDS011;61342;51.442;7.370;2022-12-07T01:36:34;40.27;;;30.03;;
71238;SDS011;61342;51.442;7.370;2022-12-07T01:37:36;38.87;;;30.50;;
71238;SDS011;61342;51.442;7.370;2022-12-07T01:38:38;44.17;;;30.13;;
71238;SDS011;61342;51.442;7.370;2022-12-07T01:39:39;42.90;;;31.10;;
71238;SDS011;61342;51.442;7.370;2022-12-07T01:40:39;39.23;;;30.27;;
71238;SDS011;61342;51.442;7.370;2022-12-07T01:41:40;44.57;;;31.30;;
71238;SDS011;61342;51.442;7.370;2022-12-07T01:42:43;43.77;;;31.30;;
71238;SDS011;61342;51.442;7.370;2022-12-07T01:46:18;41.50;;;30.70;;
71238;SDS011;61342;51.442;7.370;2022-12-07T01:47:18;40.67;;;30.83;;
71238;SDS011;61342;51.442;7.370;2022-12-07T01:48:20;44.37;;;29.73;;
71238;SDS011;61342;51.442;7.370;2022-12-07T01:49:28;43.40;;;31.23;;
71238;SDS011;61342;51.442;7.370;2022-12-07T01:50:32;43.07;;;31.50;;
71238;SDS011;61342;51.442;7.370;2022-12-07T01:51:33;42.20;;;31.43;;
71238;SDS011;61342;51.442;7.370;2022-12-07T01:52:35;44.03;;;31.97;;
71238;SDS011;61342;51.442;7.370;2022-12-07T01:53:38;44.37;;;31.43;;
71238;SDS011;61342;51.442;7.370;2022-12-07T01:54:46;43.33;;;32.13;;
71238;SDS011;61342;51.442;7.370;2022-12-07T01:55:49;43.27;;;31.83;;
71238;SDS011;61342;51.442;7.370;2022-12-07T01:56:53;48.47;;;32.10;;
71238;SDS011;61342;51.442;7.370;2022-12-07T01:57:56;40.60;;;32.43;;
71238;SDS011;61342;51.442;7.370;2022-12-07T01:58:57;47.93;;;34.23;;
71238;SDS011;61342;51.442;7.370;2022-12-07T02:00:03;43.23;;;32.00;;
71238;SDS011;61342;51.442;7.370;2022-12-07T02:01:04;44.43;;;32.17;;
71238;SDS011;61342;51.442;7.370;2022-12-07T02:02:07;43.07;;;32.97;;
71238;SDS011;61342;51.442;7.370;2022-12-07T02:03:17;40.77;;;32.37;;
71238;SDS011;61342;51.442;7.370;2022-12-07T02:04:22;47.20;;;33.43;;
71238;SDS011;61342;51.442;7.370;2022-12-07T02:05:24;43.07;;;31.73;;
71238;SDS011;61342;51.442;7.370;2022-12-07T02:06:25;46.83;;;33.73;;
71238;SDS011;61342;51.442;7.370;2022-12-07T02:07:26;42.27;;;32.47;;
71238;SDS011;61342;51.442;7.370;2022-12-07T02:08:28;42.33;;;32.47;;
71238;SDS011;61342;51.442;7.370;2022-12-07T02:09:28;42.97;;;32.33;;
71238;SDS011;61342;51.442;7.370;2022-12-07T02:10:30;42.63;;;31.67;;
71238;SDS011;61342;51.442;7.370;2022-12-07T02:11:32;44.40;;;32.83;;
71238;SDS011;61342;51.442;7.370;2022-12-07T02:12:32;44.53;;;32.43;;
71238;SDS011;61342;51.442;7.370;2022-12-07T02:13:33;45.30;;;33.37;;
71238;SDS011;61342;51.442;7.370;2022-12-07T02:14:36;42.57;;;33.47;;
71238;SDS011;61342;51.442;7.370;2022-12-07T02:16:55;44.63;;;32.13;;
71238;SDS011;61342;51.442;7.370;2022-12-07T02:18:09;47.63;;;33.17;;
71238;SDS011;61342;51.442;7.370;2022-12-07T02:22:51;43.77;;;31.93;;
71238;SDS011;61342;51.442;7.370;2022-12-07T02:30:14;41.07;;;31.07;;
71238;SDS011;61342;51.442;7.370;2022-12-07T02:31:18;47.93;;;32.20;;
71238;SDS011;61342;51.442;7.370;2022-12-07T02:33:45;42.03;;;30.17;;
71238;SDS011;61342;51.442;7.370;2022-12-07T02:34:59;43.07;;;30.20;;
71238;SDS011;61342;51.442;7.370;2022-12-07T02:39:53;39.50;;;30.53;;
71238;SDS011;61342;51.442;7.370;2022-12-07T02:41:10;42.07;;;29.80;;
71238;SDS011;61342;51.442;7.370;2022-12-07T02:42:17;41.50;;;29.17;;
71238;SDS011;61342;51.442;7.370;2022-12-07T02:43:38;45.70;;;29.00;;
71238;SDS011;61342;51.442;7.370;2022-12-07T02:44:43;43.53;;;29.23;;
71238;SDS011;61342;51.442;7.370;2022-12-07T02:45:45;42.23;;;29.90;;
71238;SDS011;61342;51.442;7.370;2022-12-07T02:46:53;40.57;;;28.93;;
71238;SDS011;61342;51.442;7.370;2022-12-07T02:47:58;42.40;;;28.97;;
71238;SDS011;61342;51.442;7.370;2022-12-07T02:49:00;37.43;;;28.53;;
71238;SDS011;61342;51.442;7.370;2022-12-07T02:50:04;35.77;;;28.63;;
71238;SDS011;61342;51.442;7.370;2022-12-07T02:51:05;34.80;;;27.00;;
71238;SDS011;61342;51.442;7.370;2022-12-07T02:52:05;34.30;;;25.73;;
71238;SDS011;61342;51.442;7.370;2022-12-07T02:53:27;34.93;;;26.97;;
71238;SDS011;61342;51.442;7.370;2022-12-07T02:54:33;37.07;;;26.60;;
71238;SDS011;61342;51.442;7.370;2022-12-07T02:55:34;38.17;;;27.37;;
71238;SDS011;61342;51.442;7.370;2022-12-07T02:56:44;37.40;;;26.87;;
71238;SDS011;61342;51.442;7.370;2022-12-07T03:00:11;34.40;;;27.27;;
71238;SDS011;61342;51.442;7.370;2022-12-07T03:01:30;35.13;;;27.40;;
71238;SDS011;61342;51.442;7.370;2022-12-07T03:04:00;34.93;;;26.00;;
71238;SDS011;61342;51.442;7.370;2022-12-07T03:06:31;34.73;;;24.60;;
71238;SDS011;61342;51.442;7.370;2022-12-07T03:11:24;31.80;;;25.40;;
71238;SDS011;61342;51.442;7.370;2022-12-07T03:12:55;35.47;;;25.27;;
71238;SDS011;61342;51.442;7.370;2022-12-07T03:14:04;33.03;;;25.20;;
71238;SDS011;61342;51.442;7.370;2022-12-07T03:15:25;34.77;;;24.13;;
71238;SDS011;61342;51.442;7.370;2022-12-07T03:16:34;36.60;;;24.90;;
71238;SDS011;61342;51.442;7.370;2022-12-07T03:17:36;36.27;;;25.13;;
71238;SDS011;61342;51.442;7.370;2022-12-07T03:19:02;31.97;;;25.00;;
71238;SDS011;61342;51.442;7.370;2022-12-07T03:20:13;32.60;;;23.63;;
71238;SDS011;61342;51.442;7.370;2022-12-07T03:21:18;31.17;;;23.47;;
71238;SDS011;61342;51.442;7.370;2022-12-07T03:22:23;33.53;;;23.67;;
71238;SDS011;61342;51.442;7.370;2022-12-07T03:23:28;29.17;;;23.53;;
71238;SDS011;61342;51.442;7.370;2022-12-07T03:24:37;33.57;;;24.43;;
71238;SDS011;61342;51.442;7.370;2022-12-07T03:25:43;34.27;;;23.23;;
71238;SDS011;61342;51.442;7.370;2022-12-07T03:26:48;32.07;;;22.70;;
71238;SDS011;61342;51.442;7.370;2022-12-07T03:27:53;31.67;;;23.17;;
71238;SDS011;61342;51.442;7.370;2022-12-07T03:28:58;30.87;;;24.13;;
71238;SDS011;61342;51.442;7.370;2022-12-07T03:31:15;30.37;;;23.60;;
71238;SDS011;61342;51.442;7.370;2022-12-07T03:33:28;29.30;;;21.90;;
71238;SDS011;61342;51.442;7.370;2022-12-07T03:34:51;33.73;;;22.63;;
71238;SDS011;61342;51.442;7.370;2022-12-07T03:37:12;31.63;;;23.00;;
71238;SDS011;61342;51.442;7.370;2022-12-07T03:42:03;29.60;;;22.70;;
71238;SDS011;61342;51.442;7.370;2022-12-07T03:43:07;27.80;;;21.80;;
71238;SDS011;61342;51.442;7.370;2022-12-07T03:44:08;31.20;;;22.93;;
71238;SDS011;61342;51.442;7.370;2022-12-07T03:45:08;30.03;;;22.67;;
71238;SDS011;61342;51.442;7.370;2022-12-07T03:46:16;30.93;;;23.50;;
71238;SDS011;61342;51.442;7.370;2022-12-07T03:48:41;32.23;;;23.87;;
71238;SDS011;61342;51.442;7.370;2022-12-07T03:50:09;30.97;;;22.83;;
71238;SDS011;61342;51.442;7.370;2022-12-07T03:52:26;33.00;;;23.50;;
71238;SDS011;61342;51.442;7.370;2022-12-07T03:53:34;34.73;;;23.97;;
71238;SDS011;61342;51.442;7.370;2022-12-07T03:55:02;36.07;;;23.67;;
71238;SDS011;61342;51.442;7.370;2022-12-07T03:56:05;32.50;;;23.43;;
71238;SDS011;61342;51.442;7.370;2022-12-07T03:57:07;27.67;;;23.07;;
71238;SDS011;61342;51.442;7.370;2022-12-07T03:58:11;33.70;;;23.67;;
71238;SDS011;61342;51.442;7.370;2022-12-07T03:59:14;33.90;;;23.43;;
71238;SDS011;61342;51.442;7.370;2022-12-07T04:00:15;31.27;;;23.33;;
71238;SDS011;61342;51.442;7.370;2022-12-07T04:01:17;33.07;;;23.30;;
71238;SDS011;61342;51.442;7.370;2022-12-07T04:02:18;30.13;;;22.40;;
71238;SDS011;61342;51.442;7.370;2022-12-07T04:03:19;28.83;;;22.53;;
71238;SDS011;61342;51.442;7.370;2022-12-07T04:04:20;32.00;;;22.67;;
71238;SDS011;61342;51.442;7.370;2022-12-07T04:05:22;30.03;;;21.33;;
71238;SDS011;61342;51.442;7.370;2022-12-07T04:06:23;29.60;;;22.80;;
71238;SDS011;61342;51.442;7.370;2022-12-07T04:07:23;30.03;;;21.90;;
71238;SDS011;61342;51.442;7.370;2022-12-07T04:08:24;33.60;;;22.73;;
71238;SDS011;61342;51.442;7.370;2022-12-07T04:09:27;30.83;;;22.30;;
71238;SDS011;61342;51.442;7.370;2022-12-07T04:10:27;27.30;;;22.57;;
71238;SDS011;61342;51.442;7.370;2022-12-07T04:11:28;29.13;;;22.07;;
71238;SDS011;61342;51.442;7.370;2022-12-07T04:12:28;28.30;;;22.10;;
71238;SDS011;61342;51.442;7.370;2022-12-07T04:13:28;28.23;;;21.70;;
71238;SDS011;61342;51.442;7.370;2022-12-07T04:14:29;28.47;;;22.37;;
71238;SDS011;61342;51.442;7.370;2022-12-07T04:15:29;29.47;;;21.40;;
71238;SDS011;61342;51.442;7.370;2022-12-07T04:16:30;28.73;;;22.53;;
71238;SDS011;61342;51.442;7.370;2022-12-07T04:17:30;32.27;;;23.93;;
71238;SDS011;61342;51.442;7.370;2022-12-07T04:18:30;30.33;;;22.67;;
71238;SDS011;61342;51.442;7.370;2022-12-07T04:19:32;32.67;;;23.47;;
71238;SDS011;61342;51.442;7.370;2022-12-07T04:20:33;31.33;;;22.27;;
71238;SDS011;61342;51.442;7.370;2022-12-07T04:21:34;30.63;;;21.97;;
71238;SDS011;61342;51.442;7.370;2022-12-07T04:22:34;27.73;;;22.27;;
71238;SDS011;61342;51.442;7.370;2022-12-07T04:23:37;30.73;;;21.87;;
71238;SDS011;61342;51.442;7.370;2022-12-07T04:24:56;32.23;;;22.40;;
71238;SDS011;61342;51.442;7.370;2022-12-07T04:25:59;30.70;;;22.37;;
71238;SDS011;61342;51.442;7.370;2022-12-07T04:27:02;28.47;;;21.90;;
71238;SDS011;61342;51.442;7.370;2022-12-07T04:28:03;34.80;;;22.77;;
71238;SDS011;61342;51.442;7.370;2022-12-07T04:29:04;33.00;;;22.80;;
71238;SDS011;61342;51.442;7.370;2022-12-07T04:30:05;29.63;;;22.77;;
71238;SDS011;61342;51.442;7.370;2022-12-07T04:31:09;30.87;;;22.80;;
71238;SDS011;61342;51.442;7.370;2022-12-07T04:32:09;33.23;;;23.53;;
71238;SDS011;61342;51.442;7.370;2022-12-07T04:33:09;29.40;;;22.07;;
71238;SDS011;61342;51.442;7.370;2022-12-07T04:34:10;28.57;;;21.70;;
71238;SDS011;61342;51.442;7.370;2022-12-07T04:35:11;31.20;;;22.13;;
71238;SDS011;61342;51.442;7.370;2022-12-07T04:36:12;30.97;;;22.20;;
71238;SDS011;61342;51.442;7.370;2022-12-07T04:37:12;31.77;;;22.00;;
71238;SDS011;61342;51.442;7.370;2022-12-07T04:38:12;32.17;;;22.60;;
71238;SDS011;61342;51.442;7.370;2022-12-07T04:39:17;28.07;;;20.83;;
71238;SDS011;61342;51.442;7.370;2022-12-07T04:40:26;27.13;;;20.93;;
71238;SDS011;61342;51.442;7.370;2022-12-07T04:41:30;30.70;;;21.53;;
71238;SDS011;61342;51.442;7.370;2022-12-07T04:42:33;29.00;;;21.10;;
71238;SDS011;61342;51.442;7.370;2022-12-07T04:43:37;31.77;;;22.20;;
71238;SDS011;61342;51.442;7.370;2022-12-07T04:44:37;30.90;;;22.77;;
71238;SDS011;61342;51.442;7.370;2022-12-07T04:47:30;30.50;;;20.47;;
71238;SDS011;61342;51.442;7.370;2022-12-07T04:48:41;30.20;;;22.07;;
71238;SDS011;61342;51.442;7.370;2022-12-07T04:49:47;34.50;;;22.30;;
71238;SDS011;61342;51.442;7.370;2022-12-07T04:50:48;34.53;;;23.87;;
71238;SDS011;61342;51.442;7.370;2022-12-07T04:52:00;33.63;;;22.07;;
71238;SDS011;61342;51.442;7.370;2022-12-07T04:53:08;26.97;;;20.43;;
71238;SDS011;61342;51.442;7.370;2022-12-07T04:54:15;27.27;;;19.93;;
71238;SDS011;61342;51.442;7.370;2022-12-07T04:55:19;29.60;;;21.00;;
71238;SDS011;61342;51.442;7.370;2022-12-07T04:56:23;28.97;;;20.03;;
71238;SDS011;61342;51.442;7.370;2022-12-07T04:57:24;34.00;;;21.63;;
71238;SDS011;61342;51.442;7.370;2022-12-07T04:58:25;27.60;;;20.23;;
71238;SDS011;61342;51.442;7.370;2022-12-07T04:59:25;26.27;;;20.10;;
71238;SDS011;61342;51.442;7.370;2022-12-07T05:00:29;25.00;;;19.87;;
71238;SDS011;61342;51.442;7.370;2022-12-07T05:01:37;27.43;;;19.27;;
71238;SDS011;61342;51.442;7.370;2022-12-07T05:02:38;28.77;;;20.23;;
71238;SDS011;61342;51.442;7.370;2022-12-07T05:03:48;31.47;;;20.20;;
71238;SDS011;61342;51.442;7.370;2022-12-07T05:04:48;27.63;;;19.83;;
71238;SDS011;61342;51.442;7.370;2022-12-07T05:05:55;32.47;;;20.17;;
71238;SDS011;61342;51.442;7.370;2022-12-07T05:07:13;30.43;;;19.87;;
71238;SDS011;61342;51.442;7.370;2022-12-07T05:08:21;29.50;;;20.87;;
71238;SDS011;61342;51.442;7.370;2022-12-07T05:09:34;31.83;;;20.80;;
71238;SDS011;61342;51.442;7.370;2022-12-07T05:10:51;28.13;;;18.27;;
71238;SDS011;61342;51.442;7.370;2022-12-07T05:11:52;32.83;;;20.40;;
71238;SDS011;61342;51.442;7.370;2022-12-07T05:12:56;33.73;;;21.00;;
71238;SDS011;61342;51.442;7.370;2022-12-07T05:13:56;28.63;;;20.37;;
71238;SDS011;61342;51.442;7.370;2022-12-07T05:14:57;29.07;;;20.37;;
71238;SDS011;61342;51.442;7.370;2022-12-07T05:16:01;35.43;;;21.87;;
71238;SDS011;61342;51.442;7.370;2022-12-07T05:17:02;30.60;;;21.10;;
71238;SDS011;61342;51.442;7.370;2022-12-07T05:18:06;35.13;;;21.97;;
71238;SDS011;61342;51.442;7.370;2022-12-07T05:19:08;29.77;;;21.87;;
71238;SDS011;61342;51.442;7.370;2022-12-07T05:20:12;32.10;;;22.63;;
71238;SDS011;61342;51.442;7.370;2022-12-07T05:21:12;34.83;;;21.53;;
71238;SDS011;61342;51.442;7.370;2022-12-07T05:22:13;30.93;;;21.57;;
71238;SDS011;61342;51.442;7.370;2022-12-07T05:23:15;28.63;;;21.30;;
71238;SDS011;61342;51.442;7.370;2022-12-07T05:24:15;27.73;;;20.47;;
71238;SDS011;61342;51.442;7.370;2022-12-07T05:25:17;29.17;;;20.57;;
71238;SDS011;61342;51.442;7.370;2022-12-07T05:26:17;30.53;;;20.77;;
71238;SDS011;61342;51.442;7.370;2022-12-07T05:27:18;28.47;;;20.33;;
71238;SDS011;61342;51.442;7.370;2022-12-07T05:28:22;28.47;;;21.33;;
71238;SDS011;61342;51.442;7.370;2022-12-07T05:29:30;28.97;;;21.20;;
71238;SDS011;61342;51.442;7.370;2022-12-07T05:30:30;33.03;;;22.77;;
71238;SDS011;61342;51.442;7.370;2022-12-07T05:31:31;31.10;;;21.87;;
71238;SDS011;61342;51.442;7.370;2022-12-07T05:32:32;31.50;;;21.63;;
71238;SDS011;61342;51.442;7.370;2022-12-07T05:33:32;33.97;;;23.37;;
71238;SDS011;61342;51.442;7.370;2022-12-07T05:34:32;30.93;;;21.47;;
71238;SDS011;61342;51.442;7.370;2022-12-07T05:35:33;32.27;;;21.80;;
71238;SDS011;61342;51.442;7.370;2022-12-07T05:36:33;30.53;;;21.63;;
71238;SDS011;61342;51.442;7.370;2022-12-07T05:37:33;31.33;;;22.47;;
71238;SDS011;61342;51.442;7.370;2022-12-07T05:38:34;32.83;;;22.60;;
71238;SDS011;61342;51.442;7.370;2022-12-07T05:39:34;34.53;;;22.83;;
71238;SDS011;61342;51.442;7.370;2022-12-07T05:40:36;33.30;;;22.13;;
71238;SDS011;61342;51.442;7.370;2022-12-07T05:41:36;34.70;;;23.07;;
71238;SDS011;61342;51.442;7.370;2022-12-07T05:42:55;35.50;;;22.33;;
71238;SDS011;61342;51.442;7.370;2022-12-07T05:43:56;31.57;;;23.10;;
71238;SDS011;61342;51.442;7.370;2022-12-07T05:44:56;31.87;;;21.97;;
71238;SDS011;61342;51.442;7.370;2022-12-07T05:45:59;33.30;;;22.23;;
71238;SDS011;61342;51.442;7.370;2022-12-07T05:46:59;31.07;;;21.83;;
71238;SDS011;61342;51.442;7.370;2022-12-07T05:48:00;33.10;;;22.97;;
71238;SDS011;61342;51.442;7.370;2022-12-07T05:49:00;33.90;;;23.40;;
71238;SDS011;61342;51.442;7.370;2022-12-07T05:50:02;34.87;;;22.90;;
71238;SDS011;61342;51.442;7.370;2022-12-07T05:51:03;33.93;;;23.43;;
71238;SDS011;61342;51.442;7.370;2022-12-07T05:52:03;36.67;;;22.67;;
71238;SDS011;61342;51.442;7.370;2022-12-07T05:53:04;31.23;;;22.50;;
71238;SDS011;61342;51.442;7.370;2022-12-07T05:54:05;33.60;;;22.73;;
71238;SDS011;61342;51.442;7.370;2022-12-07T05:55:05;35.20;;;22.93;;
71238;SDS011;61342;51.442;7.370;2022-12-07T05:56:09;31.33;;;23.07;;
71238;SDS011;61342;51.442;7.370;2022-12-07T05:57:10;33.00;;;22.90;;
71238;SDS011;61342;51.442;7.370;2022-12-07T05:58:10;32.37;;;22.23;;
71238;SDS011;61342;51.442;7.370;2022-12-07T05:59:29;30.33;;;21.20;;
71238;SDS011;61342;51.442;7.370;2022-12-07T06:00:29;31.47;;;22.07;;
71238;SDS011;61342;51.442;7.370;2022-12-07T06:01:30;32.50;;;21.97;;
71238;SDS011;61342;51.442;7.370;2022-12-07T06:02:30;31.03;;;20.87;;
71238;SDS011;61342;51.442;7.370;2022-12-07T06:03:30;34.50;;;22.80;;
71238;SDS011;61342;51.442;7.370;2022-12-07T06:04:32;34.83;;;23.13;;
71238;SDS011;61342;51.442;7.370;2022-12-07T06:05:35;37.50;;;22.83;;
71238;SDS011;61342;51.442;7.370;2022-12-07T06:06:35;36.67;;;23.50;;
71238;SDS011;61342;51.442;7.370;2022-12-07T06:07:36;33.97;;;22.87;;
71238;SDS011;61342;51.442;7.370;2022-12-07T06:08:37;32.43;;;22.30;;
71238;SDS011;61342;51.442;7.370;2022-12-07T06:09:38;35.07;;;23.53;;
71238;SDS011;61342;51.442;7.370;2022-12-07T06:10:38;38.17;;;22.90;;
71238;SDS011;61342;51.442;7.370;2022-12-07T06:11:39;36.43;;;23.87;;
71238;SDS011;61342;51.442;7.370;2022-12-07T06:12:58;37.77;;;22.60;;
71238;SDS011;61342;51.442;7.370;2022-12-07T06:13:59;35.10;;;23.97;;
71238;SDS011;61342;51.442;7.370;2022-12-07T06:14:59;40.67;;;24.97;;
71238;SDS011;61342;51.442;7.370;2022-12-07T06:15:59;35.07;;;23.73;;
71238;SDS011;61342;51.442;7.370;2022-12-07T06:17:00;39.33;;;23.27;;
71238;SDS011;61342;51.442;7.370;2022-12-07T06:18:00;34.37;;;23.77;;
71238;SDS011;61342;51.442;7.370;2022-12-07T06:19:01;36.87;;;23.50;;
71238;SDS011;61342;51.442;7.370;2022-12-07T06:20:01;34.30;;;24.30;;
71238;SDS011;61342;51.442;7.370;2022-12-07T06:21:03;32.90;;;23.70;;
71238;SDS011;61342;51.442;7.370;2022-12-07T06:22:03;35.10;;;23.57;;
71238;SDS011;61342;51.442;7.370;2022-12-07T06:23:04;32.43;;;22.67;;
71238;SDS011;61342;51.442;7.370;2022-12-07T06:24:05;33.57;;;23.50;;
71238;SDS011;61342;51.442;7.370;2022-12-07T06:25:05;36.20;;;23.80;;
71238;SDS011;61342;51.442;7.370;2022-12-07T06:26:07;34.77;;;23.40;;
71238;SDS011;61342;51.442;7.370;2022-12-07T06:27:07;44.93;;;25.47;;
71238;SDS011;61342;51.442;7.370;2022-12-07T06:28:08;36.63;;;24.47;;
71238;SDS011;61342;51.442;7.370;2022-12-07T06:29:09;38.37;;;24.33;;
71238;SDS011;61342;51.442;7.370;2022-12-07T06:30:09;36.87;;;24.43;;
71238;SDS011;61342;51.442;7.370;2022-12-07T06:31:10;41.03;;;25.30;;
71238;SDS011;61342;51.442;7.370;2022-12-07T06:32:10;38.00;;;23.33;;
71238;SDS011;61342;51.442;7.370;2022-12-07T06:33:11;38.37;;;23.90;;
71238;SDS011;61342;51.442;7.370;2022-12-07T06:34:13;34.77;;;22.97;;
71238;SDS011;61342;51.442;7.370;2022-12-07T06:35:15;33.23;;;22.87;;
71238;SDS011;61342;51.442;7.370;2022-12-07T06:36:15;37.10;;;23.87;;
71238;SDS011;61342;51.442;7.370;2022-12-07T06:37:15;34.57;;;24.00;;
71238;SDS011;61342;51.442;7.370;2022-12-07T06:38:16;36.03;;;23.90;;
71238;SDS011;61342;51.442;7.370;2022-12-07T06:39:20;29.07;;;22.60;;
71238;SDS011;61342;51.442;7.370;2022-12-07T06:40:25;40.43;;;23.73;;
71238;SDS011;61342;51.442;7.370;2022-12-07T06:41:25;34.53;;;22.57;;
71238;SDS011;61342;51.442;7.370;2022-12-07T06:42:25;36.03;;;23.93;;
71238;SDS011;61342;51.442;7.370;2022-12-07T06:43:26;35.63;;;22.33;;
71238;SDS011;61342;51.442;7.370;2022-12-07T06:44:27;32.23;;;23.10;;
71238;SDS011;61342;51.442;7.370;2022-12-07T06:45:27;34.03;;;21.50;;
71238;SDS011;61342;51.442;7.370;2022-12-07T06:46:28;37.03;;;23.13;;
71238;SDS011;61342;51.442;7.370;2022-12-07T06:47:28;32.77;;;22.30;;
71238;SDS011;61342;51.442;7.370;2022-12-07T06:48:28;37.10;;;22.50;;
71238;SDS011;61342;51.442;7.370;2022-12-07T06:49:28;34.33;;;22.77;;
71238;SDS011;61342;51.442;7.370;2022-12-07T06:50:29;34.37;;;23.43;;